Ashtabula, OH (44004)

11:58 PM EDT on September 26, 2016 (GMT -0400)
Ashtabula Fire Station | | Change Station

Elev 682 ft 41.87 °N, 80.78 °W | Updated 13 seconds ago

Clear
Clear
58.8 °F
Feels Like 58.8 °F
N
4.2
Wind Variable Wind from South
Gusts 4.9 mph

Today
High -- | Low -- °F
--% Chance of Precip.
Yesterday
High -- | Low -- °F
Precip. -- in
Pressure 29.96 in
Visibility 10.0 miles
Clouds Clear
Dew Point 53 °F
Humidity 81%
Rainfall 0.22 in
Snow Depth Not available.
7:15 AM 7:12 PM
Waning Crescent, 14% visible
METAR KHZY 270353Z AUTO 21007KT 10SM CLR 13/12 A2996 RMK AO2 SLP143 T01280117
Pressure 29.96 in
Visibility 10.0 miles
Clouds Clear
Dew Point 53 °F
Humidity 81%
Rainfall 0.22 in
Snow Depth Not available.
7:15 AM 7:12 PM
Waning Crescent, 14% visible
METAR KHZY 270353Z AUTO 21007KT 10SM CLR 13/12 A2996 RMK AO2 SLP143 T01280117

10-Day Weather Forecast

Almanac

Astronomy

Sep. 26, 2016 Rise Set
Actual Time
Civil Twilight
Nautical Twilight
Astronomical Twilight
Moon
Length of Visible Light
Length of Day
Tomorrow will be .
, % of the Moon is Illuminated

Today's Extremes

State Highs State Lows

Community

WunderPhotos

Upload Photos

1,942,029 photos uploaded!

WunderBlog® & News

Nearby

Air Quality

  Air Quality AQ Index Pollutant
Not available.

Snow Depth

Station Depth Elevation

Earthquake Activity

City Distance Mag. Time & Date
Minimum magnitude displayed is 2.5.

Coastal Water Temperatures

Place Temperature

Stations

Nearby Weather Stations

Station Location Temp. Windchill Dew Point Humidity Wind Precip. Elev Updated Type
                   

Watches & Warnings

There are currently no watches in effect.